createdAt,value
2018-03-25T00:01:27.596Z,100170.03
2018-03-25T00:04:33.128Z,100167.52
2018-03-25T00:07:38.742Z,100164.59
2018-03-25T00:10:44.339Z,100169.68
2018-03-25T00:13:49.901Z,100169.71
2018-03-25T00:16:55.440Z,100178.66
2018-03-25T00:20:01.004Z,100171.97
2018-03-25T00:23:06.515Z,100169.86
2018-03-25T00:26:12.088Z,100168.62
2018-03-25T00:29:17.598Z,100168.27
2018-03-25T00:32:23.146Z,100172.56
2018-03-25T00:35:28.704Z,100171.31
2018-03-25T00:38:34.203Z,100170.93
2018-03-25T00:41:39.760Z,100164.14
2018-03-25T00:44:45.253Z,100173.56
2018-03-25T00:47:50.794Z,100169.33
2018-03-25T00:50:56.304Z,100180.41
2018-03-25T00:54:01.854Z,100174.07
2018-03-25T00:57:07.358Z,100179.64
2018-03-25T01:00:12.912Z,100178.84
2018-03-25T01:03:18.166Z,100176.32
2018-03-25T01:06:23.818Z,100178.48
2018-03-25T01:09:29.337Z,100176.80
2018-03-25T01:12:34.905Z,100175.17
2018-03-25T01:15:51.519Z,100165.39
2018-03-25T01:18:56.789Z,100168.44
2018-03-25T01:22:02.294Z,100173.56
2018-03-25T01:25:07.867Z,100168.94
2018-03-25T01:28:13.472Z,100167.70
2018-03-25T01:31:19.057Z,100173.69
2018-03-25T01:34:24.655Z,100169.06
2018-03-25T01:37:30.217Z,100171.64
2018-03-25T01:40:35.785Z,100176.79
2018-03-25T01:43:41.303Z,100172.58
2018-03-25T01:46:46.871Z,100170.48
2018-03-25T01:49:52.373Z,100164.59
2018-03-25T01:52:57.919Z,100168.85
2018-03-25T01:56:03.422Z,100170.59
2018-03-25T01:59:08.980Z,100165.98
2018-03-25T02:02:14.510Z,100166.86
2018-03-25T02:05:20.044Z,100169.88
2018-03-25T02:08:25.608Z,100172.87
2018-03-25T02:11:31.161Z,100167.84
2018-03-25T02:14:36.656Z,100165.33
2018-03-25T02:17:42.201Z,100172.55
2018-03-25T02:20:47.713Z,100170.44
2018-03-25T02:23:53.308Z,100173.91
2018-03-25T02:26:58.845Z,100170.97
2018-03-25T02:30:03.866Z,100170.55
2018-03-25T02:33:09.438Z,100172.72
2018-03-25T02:36:14.974Z,100171.05
2018-03-25T02:39:20.522Z,100171.94
2018-03-25T02:42:26.169Z,100172.39
2018-03-25T02:45:31.681Z,100171.17
2018-03-25T02:48:37.279Z,100166.97
2018-03-25T02:51:42.637Z,100174.22
2018-03-25T02:54:48.148Z,100171.25
2018-03-25T02:57:53.740Z,100176.37
2018-03-25T03:00:59.319Z,100175.57
2018-03-25T03:04:04.922Z,100171.81
2018-03-25T03:07:10.482Z,100175.21
2018-03-25T03:10:16.002Z,100178.23
2018-03-25T03:13:21.573Z,100171.89
2018-03-25T03:16:27.097Z,100176.59
2018-03-25T03:19:32.636Z,100174.08
2018-03-25T03:22:38.144Z,100172.84
2018-03-25T03:25:43.701Z,100183.91
2018-03-25T03:28:49.221Z,100186.45
2018-03-25T03:31:54.772Z,100182.69
2018-03-25T03:35:00.322Z,100186.95
2018-03-25T03:38:05.842Z,100184.84
2018-03-25T03:41:11.417Z,100186.59
2018-03-25T03:44:17.028Z,100185.75
2018-03-25T03:47:22.562Z,100193.86
2018-03-25T03:50:29.081Z,100192.17
2018-03-25T03:53:36.323Z,100192.64
2018-03-25T03:56:41.953Z,100193.97
2018-03-25T03:59:47.487Z,100204.59
2018-03-25T04:02:52.988Z,100201.24
2018-03-25T04:05:58.587Z,100211.42
2018-03-25T04:09:04.002Z,100206.36
2018-03-25T04:12:09.743Z,100207.66
2018-03-25T04:15:15.296Z,100200.94
2018-03-25T04:18:20.853Z,100201.80
2018-03-25T04:21:26.360Z,100206.49
2018-03-25T04:24:31.918Z,100200.16
2018-03-25T04:27:37.600Z,100191.70
2018-03-25T04:30:43.342Z,100194.27
2018-03-25T04:33:48.881Z,100197.26
2018-03-25T04:36:54.436Z,100193.05
2018-03-25T04:40:00.001Z,100192.22
2018-03-25T04:43:05.565Z,100194.38
2018-03-25T04:46:11.206Z,100190.17
2018-03-25T04:49:16.809Z,100191.00
2018-03-25T04:52:22.316Z,100194.43
2018-03-25T04:55:27.882Z,100193.59
2018-03-25T04:58:33.639Z,100196.17
2018-03-25T05:01:39.224Z,100188.12
2018-03-25T05:04:44.738Z,100193.27
2018-03-25T05:07:50.298Z,100197.05
2018-03-25T05:10:55.651Z,100198.77
2018-03-25T05:14:01.204Z,100191.58
2018-03-25T05:17:06.769Z,100196.28
2018-03-25T05:20:12.348Z,100197.14
2018-03-25T05:23:23.510Z,100203.08
2018-03-25T05:26:30.541Z,100206.48
2018-03-25T05:29:35.854Z,100201.03
2018-03-25T05:32:41.407Z,100205.70
2018-03-25T05:35:47.696Z,100207.00
2018-03-25T05:38:58.624Z,100208.27
2018-03-25T05:42:04.662Z,100207.47
2018-03-25T05:45:13.792Z,100208.77
2018-03-25T05:48:20.845Z,100212.14
2018-03-25T05:51:27.555Z,100216.81
2018-03-25T05:54:37.068Z,100231.24
2018-03-25T05:57:45.091Z,100226.16
2018-03-25T06:00:54.663Z,100229.97
2018-03-25T06:04:01.090Z,100227.42
2018-03-25T06:07:06.650Z,100232.10
2018-03-25T06:10:14.514Z,100232.08
2018-03-25T06:13:22.508Z,100235.03
2018-03-25T06:16:29.028Z,100238.44
2018-03-25T06:19:35.526Z,100243.94
2018-03-25T06:22:43.826Z,100252.81
2018-03-25T06:25:49.805Z,100249.41
2018-03-25T06:28:56.451Z,100251.95
2018-03-25T06:32:03.342Z,100248.98
2018-03-25T06:35:09.766Z,100252.77
2018-03-25T06:38:17.189Z,100255.28
2018-03-25T06:41:23.297Z,100258.22
2018-03-25T06:44:29.016Z,100268.80
2018-03-25T06:47:34.682Z,100262.81
2018-03-25T06:50:40.270Z,100268.73
2018-03-25T06:53:45.785Z,100270.41
2018-03-25T06:56:51.346Z,100276.28
2018-03-25T06:59:56.881Z,100277.97
2018-03-25T07:03:02.434Z,100274.54
2018-03-25T07:06:07.958Z,100280.47
2018-03-25T07:09:13.529Z,100285.91
2018-03-25T07:12:19.097Z,100283.34
2018-03-25T07:15:24.734Z,100290.06
2018-03-25T07:18:33.241Z,100290.88
2018-03-25T07:21:55.273Z,100303.10
2018-03-25T07:25:01.998Z,100306.89
2018-03-25T07:28:07.614Z,100300.48
2018-03-25T07:31:13.251Z,100305.96
2018-03-25T07:34:18.918Z,100309.28
2018-03-25T07:37:24.490Z,100307.94
2018-03-25T07:40:33.224Z,100310.81
2018-03-25T07:43:38.949Z,100312.42
2018-03-25T07:46:44.566Z,100317.91
2018-03-25T07:49:50.187Z,100317.00
2018-03-25T07:52:56.058Z,100316.03
2018-03-25T07:56:03.193Z,100321.05
2018-03-25T07:59:14.374Z,100325.20
2018-03-25T08:02:19.890Z,100326.38
2018-03-25T08:05:25.484Z,100333.48
2018-03-25T08:08:31.066Z,100335.07
2018-03-25T08:11:36.622Z,100339.64
2018-03-25T08:14:51.126Z,100341.20
2018-03-25T08:17:57.086Z,100341.92
2018-03-25T08:21:02.634Z,100342.17
2018-03-25T08:24:08.356Z,100344.55
2018-03-25T08:27:13.921Z,100344.45
2018-03-25T08:30:19.620Z,100349.37
2018-03-25T08:33:33.710Z,100348.38
2018-03-25T08:36:40.926Z,100354.12
2018-03-25T08:39:46.552Z,100353.13
2018-03-25T08:42:52.176Z,100358.02
2018-03-25T08:45:57.701Z,100356.99
2018-03-25T08:49:03.903Z,100353.01
2018-03-25T08:52:09.941Z,100356.66
2018-03-25T08:55:15.510Z,100360.28
2018-03-25T08:58:21.089Z,100355.40
2018-03-25T09:01:26.652Z,100358.61
2018-03-25T09:04:32.266Z,100358.02
2018-03-25T09:07:37.843Z,100360.33
2018-03-25T09:10:43.419Z,100363.50
2018-03-25T09:13:48.979Z,100365.41
2018-03-25T09:16:54.561Z,100363.48
2018-03-25T09:20:00.206Z,100362.37
2018-03-25T09:23:05.882Z,100368.54
2018-03-25T09:26:11.620Z,100368.71
2018-03-25T09:29:17.204Z,100371.44
2018-03-25T09:32:22.846Z,100372.50
2018-03-25T09:35:28.397Z,100376.05
2018-03-25T09:38:34.450Z,100379.63
2018-03-25T09:41:40.042Z,100376.81
2018-03-25T09:44:45.610Z,100381.25
2018-03-25T09:47:51.261Z,100378.48
2018-03-25T09:50:56.837Z,100377.42
2018-03-25T09:54:02.422Z,100378.48
2018-03-25T09:57:09.312Z,100382.02
2018-03-25T10:00:14.750Z,100389.90
2018-03-25T10:03:25.654Z,100387.88
2018-03-25T10:06:31.492Z,100383.82
2018-03-25T10:09:37.063Z,100389.14
2018-03-25T10:12:50.731Z,100392.36
2018-03-25T10:16:10.687Z,100388.71
2018-03-25T10:19:25.349Z,100390.96
2018-03-25T10:22:38.231Z,100395.02
2018-03-25T10:25:51.278Z,100399.92
2018-03-25T10:29:01.485Z,100392.08
2018-03-25T10:32:13.530Z,100394.95
2018-03-25T10:35:21.825Z,100393.91
2018-03-25T10:38:32.051Z,100395.88
2018-03-25T10:41:38.040Z,100399.58
2018-03-25T10:44:47.367Z,100393.08
2018-03-25T10:47:57.264Z,100402.62
2018-03-25T10:51:04.760Z,100400.68
2018-03-25T10:54:10.310Z,100401.89
2018-03-25T10:57:15.942Z,100394.52
2018-03-25T11:00:21.634Z,100387.09
2018-03-25T11:03:27.322Z,100393.72
2018-03-25T11:06:32.987Z,100398.31
2018-03-25T11:09:38.553Z,100396.89
2018-03-25T11:12:44.082Z,100398.92
2018-03-25T11:15:49.638Z,100400.55
2018-03-25T11:18:55.164Z,100396.00
2018-03-25T11:22:00.574Z,100405.68
2018-03-25T11:25:06.179Z,100408.55
2018-03-25T11:28:11.744Z,100409.27
2018-03-25T11:31:17.389Z,100413.82
2018-03-25T11:34:22.967Z,100415.34
2018-03-25T11:37:28.625Z,100411.42
2018-03-25T11:40:34.452Z,100407.70
2018-03-25T11:43:40.007Z,100406.80
2018-03-25T11:46:45.610Z,100413.36
2018-03-25T11:49:51.189Z,100410.69
2018-03-25T11:52:56.789Z,100413.92
2018-03-25T11:56:02.362Z,100410.80
2018-03-25T11:59:07.925Z,100420.52
2018-03-25T12:02:13.480Z,100416.94
2018-03-25T12:05:19.320Z,100411.38
2018-03-25T12:08:24.886Z,100418.80
2018-03-25T12:11:30.414Z,100416.57
2018-03-25T12:14:36.004Z,100420.41
2018-03-25T12:17:41.530Z,100419.31
2018-03-25T12:20:47.101Z,100413.74
2018-03-25T12:23:52.632Z,100416.72
2018-03-25T12:26:58.194Z,100410.99
2018-03-25T12:30:03.814Z,100413.06
2018-03-25T12:33:09.383Z,100416.45
2018-03-25T12:36:15.183Z,100418.16
2018-03-25T12:39:20.755Z,100418.11
2018-03-25T12:42:26.314Z,100418.11
2018-03-25T12:45:32.223Z,100415.95
2018-03-25T12:48:37.812Z,100413.17
2018-03-25T12:51:43.349Z,100417.09
2018-03-25T12:54:48.937Z,100414.56
2018-03-25T12:57:54.576Z,100418.70
2018-03-25T13:01:00.178Z,100421.20
2018-03-25T13:04:05.564Z,100419.98
2018-03-25T13:07:11.162Z,100417.80
2018-03-25T13:10:16.693Z,100420.41
2018-03-25T13:13:22.252Z,100426.32
2018-03-25T13:16:27.831Z,100419.87
2018-03-25T13:19:33.404Z,100421.98
2018-03-25T13:22:38.947Z,100417.42
2018-03-25T13:25:44.555Z,100420.29
2018-03-25T13:28:50.170Z,100422.52
2018-03-25T13:31:55.757Z,100422.47
2018-03-25T13:35:01.370Z,100421.31
2018-03-25T13:38:06.890Z,100423.08
2018-03-25T13:41:12.466Z,100423.53
2018-03-25T13:44:18.103Z,100423.00
2018-03-25T13:47:23.703Z,100424.70
2018-03-25T13:50:31.753Z,100426.02
2018-03-25T13:53:37.324Z,100423.61
2018-03-25T13:56:42.838Z,100427.98
2018-03-25T13:59:48.413Z,100418.60
2018-03-25T14:02:53.970Z,100426.73
2018-03-25T14:05:59.530Z,100423.80
2018-03-25T14:09:04.630Z,100422.03
2018-03-25T14:12:10.217Z,100424.74
2018-03-25T14:15:15.766Z,100424.74
2018-03-25T14:18:21.327Z,100421.47
2018-03-25T14:21:26.970Z,100416.34
2018-03-25T14:24:32.501Z,100421.98
2018-03-25T14:27:38.071Z,100414.80
2018-03-25T14:30:43.662Z,100416.87
2018-03-25T14:33:49.189Z,100409.71
2018-03-25T14:36:59.493Z,100412.77
2018-03-25T14:40:05.316Z,100412.35
2018-03-25T14:43:20.979Z,100416.64
2018-03-25T14:46:28.589Z,100414.20
2018-03-25T14:49:34.363Z,100409.75
2018-03-25T14:52:39.930Z,100415.21
2018-03-25T14:56:09.289Z,100417.88
2018-03-25T14:59:15.000Z,100411.06
2018-03-25T15:02:20.575Z,100413.33
2018-03-25T15:05:26.204Z,100411.70
2018-03-25T15:08:34.237Z,100416.48
2018-03-25T15:11:39.810Z,100418.41
2018-03-25T15:14:45.395Z,100420.52
2018-03-25T15:17:51.177Z,100414.56
2018-03-25T15:20:56.773Z,100424.02
2018-03-25T15:24:02.366Z,100418.52
2018-03-25T15:27:07.885Z,100425.82
2018-03-25T15:30:13.205Z,100424.72
2018-03-25T15:33:18.727Z,100424.76
2018-03-25T15:36:24.354Z,100419.34
2018-03-25T15:39:29.909Z,100422.80
2018-03-25T15:42:35.558Z,100417.83
2018-03-25T15:45:44.324Z,100420.08
2018-03-25T15:48:50.942Z,100415.00
2018-03-25T15:51:56.578Z,100413.37
2018-03-25T15:55:02.148Z,100418.11
2018-03-25T15:58:07.759Z,100419.13
2018-03-25T16:01:13.762Z,100418.78
2018-03-25T16:04:19.768Z,100418.44
2018-03-25T16:07:26.198Z,100424.08
2018-03-25T16:10:35.181Z,100425.43
2018-03-25T16:13:42.615Z,100431.11
2018-03-25T16:16:49.562Z,100430.80
2018-03-25T16:19:55.396Z,100432.19
2018-03-25T16:23:00.923Z,100432.70
2018-03-25T16:26:07.632Z,100429.77
2018-03-25T16:29:13.520Z,100437.14
2018-03-25T16:32:19.868Z,100436.90
2018-03-25T16:35:33.075Z,100444.64
2018-03-25T16:38:52.533Z,100444.27
2018-03-25T16:42:12.861Z,100448.69
2018-03-25T16:45:29.503Z,100454.31
2018-03-25T16:48:42.447Z,100452.77
2018-03-25T16:51:52.835Z,100451.17
2018-03-25T16:55:03.033Z,100456.39
2018-03-25T16:58:13.756Z,100451.45
2018-03-25T17:01:29.880Z,100453.27
2018-03-25T17:04:43.145Z,100458.91
2018-03-25T17:07:54.517Z,100460.73
2018-03-25T17:11:08.851Z,100459.20
2018-03-25T17:14:23.187Z,100461.83
2018-03-25T17:17:38.000Z,100466.22
2018-03-25T17:20:51.729Z,100468.91
2018-03-25T17:24:06.311Z,100470.73
2018-03-25T17:27:21.587Z,100472.94
2018-03-25T17:30:28.321Z,100470.52
2018-03-25T17:33:37.283Z,100480.00
2018-03-25T17:36:44.390Z,100487.80
2018-03-25T17:39:57.915Z,100480.23
2018-03-25T17:43:11.502Z,100490.13
2018-03-25T17:46:28.109Z,100479.18
2018-03-25T17:49:36.264Z,100482.70
2018-03-25T17:52:45.461Z,100480.65
2018-03-25T17:55:53.863Z,100485.44
2018-03-25T17:59:05.164Z,100493.62
2018-03-25T18:02:20.482Z,100485.63
2018-03-25T18:05:31.117Z,100491.70
2018-03-25T18:08:37.640Z,100494.73
2018-03-25T18:11:43.251Z,100489.72
2018-03-25T18:14:48.895Z,100503.45
2018-03-25T18:17:55.487Z,100505.27
2018-03-25T18:21:01.087Z,100512.13
2018-03-25T18:24:07.482Z,100517.71
2018-03-25T18:27:19.592Z,100519.08
2018-03-25T18:30:38.833Z,100521.34
2018-03-25T18:33:51.807Z,100518.87
2018-03-25T18:37:05.839Z,100519.80
2018-03-25T18:40:14.689Z,100516.50
2018-03-25T18:43:28.945Z,100521.67
2018-03-25T18:46:42.533Z,100520.91
2018-03-25T18:49:50.787Z,100528.24
2018-03-25T18:52:59.108Z,100527.02
2018-03-25T18:56:07.498Z,100524.95
2018-03-25T18:59:15.304Z,100522.89
2018-03-25T19:02:23.468Z,100528.92
2018-03-25T19:05:39.172Z,100528.98
2018-03-25T19:08:47.969Z,100530.35
2018-03-25T19:12:11.992Z,100528.69
2018-03-25T19:15:21.121Z,100530.47
2018-03-25T19:18:29.972Z,100535.22
2018-03-25T19:21:40.413Z,100540.83
2018-03-25T19:24:49.390Z,100535.33
2018-03-25T19:28:00.992Z,100531.59
2018-03-25T19:31:09.873Z,100543.52
2018-03-25T19:34:21.328Z,100540.58
2018-03-25T19:37:37.314Z,100538.50
2018-03-25T19:40:56.117Z,100538.56
2018-03-25T19:44:12.633Z,100533.55
2018-03-25T19:47:22.462Z,100533.16
2018-03-25T19:50:38.511Z,100532.39
2018-03-25T19:54:04.781Z,100534.55
2018-03-25T19:57:13.425Z,100531.19
2018-03-25T20:00:18.953Z,100532.53
2018-03-25T20:03:24.527Z,100532.17
2018-03-25T20:06:30.083Z,100527.95
2018-03-25T20:09:36.542Z,100535.25
2018-03-25T20:12:44.330Z,100528.48
2018-03-25T20:16:00.610Z,100535.34
2018-03-25T20:19:23.178Z,100538.78
2018-03-25T20:22:50.009Z,100540.94
2018-03-25T20:26:21.755Z,100550.34
2018-03-25T20:29:30.229Z,100546.16
2018-03-25T20:32:36.239Z,100544.94
2018-03-25T20:35:42.079Z,100547.57
2018-03-25T20:38:47.634Z,100544.22
2018-03-25T20:45:20.482Z,100545.55
2018-03-25T20:48:34.636Z,100556.64
2018-03-25T20:51:47.250Z,100556.25
2018-03-25T20:54:57.832Z,100558.44
2018-03-25T20:58:06.334Z,100556.36
2018-03-25T21:01:14.592Z,100559.80
2018-03-25T21:04:25.719Z,100557.30
2018-03-25T21:07:34.204Z,100559.05
2018-03-25T21:10:41.958Z,100562.46
2018-03-25T21:13:49.748Z,100557.83
2018-03-25T21:16:55.824Z,100564.26
2018-03-25T21:20:03.134Z,100569.00
2018-03-25T21:23:08.653Z,100569.02
2018-03-25T21:26:14.238Z,100574.16
2018-03-25T21:29:19.864Z,100575.45
2018-03-25T21:32:25.389Z,100575.06
2018-03-25T21:35:30.942Z,100575.92
2018-03-25T21:38:36.613Z,100571.74
2018-03-25T21:41:42.190Z,100582.38
2018-03-25T21:44:47.756Z,100584.12
2018-03-25T21:47:53.272Z,100584.15
2018-03-25T21:50:58.817Z,100579.97
2018-03-25T21:54:04.420Z,100576.11
2018-03-25T21:57:09.999Z,100582.54
2018-03-25T22:00:15.552Z,100581.73
2018-03-25T22:03:20.870Z,100576.24
2018-03-25T22:06:26.390Z,100577.13
2018-03-25T22:09:31.953Z,100578.02
2018-03-25T22:12:37.477Z,100574.24
2018-03-25T22:15:43.141Z,100572.97
2018-03-25T22:18:59.749Z,100575.13
2018-03-25T22:22:05.317Z,100576.41
2018-03-25T22:25:10.825Z,100571.75
2018-03-25T22:28:16.401Z,100574.77
2018-03-25T22:31:21.917Z,100572.69
2018-03-25T22:34:27.464Z,100572.69
2018-03-25T22:37:32.969Z,100581.24
2018-03-25T22:40:38.537Z,100583.80
2018-03-25T22:43:44.155Z,100580.02
2018-03-25T22:46:49.726Z,100576.22
2018-03-25T22:49:55.227Z,100578.77
2018-03-25T22:53:00.797Z,100580.10
2018-03-25T22:56:06.325Z,100577.16
2018-03-25T22:59:11.894Z,100579.32
2018-03-25T23:02:17.407Z,100582.72
2018-03-25T23:05:22.972Z,100577.23
2018-03-25T23:08:28.510Z,100576.82
2018-03-25T23:11:34.104Z,100578.98
2018-03-25T23:14:39.617Z,100584.96
2018-03-25T23:17:45.178Z,100578.61
2018-03-25T23:20:50.731Z,100576.12
2018-03-25T23:23:56.373Z,100575.70
2018-03-25T23:27:01.989Z,100574.45
2018-03-25T23:30:07.206Z,100572.79
2018-03-25T23:33:12.520Z,100571.12
2018-03-25T23:36:18.094Z,100572.40
2018-03-25T23:39:23.609Z,100569.06
2018-03-25T23:42:29.158Z,100578.40
2018-03-25T23:45:35.933Z,100575.02
2018-03-25T23:48:41.437Z,100567.84
2018-03-25T23:51:47.002Z,100566.59
2018-03-25T23:54:52.513Z,100578.95
2018-03-25T23:57:58.112Z,100575.56
